Terminal Aerodrome Forecast
Issued by NWS Wilmington, NC

Home | Current Version | Previous Version | Text Only | Print | Product List | Glossary On
Versions: 1 2 3 4 5 6 7 8 9 10 11 12 13
000
FTUS42 KILM 242300
TAFMYR
TAF
KMYR 242320Z 2500/2524 VRB02KT P6SM SCT250
     FM251800 21008KT P6SM SKC
      AMD LTD TO CLD VIS AND WIND 2504/2511=

USA.gov is the U.S. government's official web portal to all federal, state and local government web resources and services.